Cincinnati Northern Kentucky International Airport
KCVG : now visible

Airfield :











YOU CAN JOIN US ON...

 
LOGIN :

Register | Disclaimer

   EN    FR    IT 

 









Legend :    VFR   Marginal VFR   IFR   Intensive IFR   Very Intensive IFR
Visi :
Ceiling :
>= 8 km
>= 3000ft
5 to 8 km
1000 to 3000 ft
1500m to 5 km
500 to 1000 ft
800 to 1500m
200 to 500 ft
< 800m
< 200 ft
Symbols :   Thunderstorms  Fog  Heavy snow  Heavy precipitations  Wind > 20 kt






- Airport Elevation : 896 ft
- IATA code : CVG


KCVG - Cincinnati Northern Kentucky International

CURRENT METAR :
  • 110652Z 16009KT 10SM BKN160 OVC210 20/19 A2990 RMK AO2 RAE01 SLP115 P0000 T02000189

EXPIRED METARs :
  • 110552Z 17014KT 10SM -RA SCT110 OVC150 21/19 A2990 RMK AO2 PRESFR SLP116 P0001 60020 T02060189 10261 20206 58043
  • 110452Z 13005KT 10SM -RA FEW110 OVC140 21/19 A3000 RMK AO2 PRESFR SLP151 P0011 T02060189 402830200

TAF KCVG
Valid from the 11 at 06:00 until the 12 at 12:00 UTC


110545Z 1106/1212 VRB03KT P6SM VCSH SCT070 BKN120
TEMPO 1108/1112 5SM BR
FM111300 28005KT P6SM SCT035 BKN250
FM112300 34005KT P6SM FEW040 BKN100
FM120600 02004KT P6SM FEW080 SCT250
KZID FIR / North America



MET'MAP, your aeronautical weather chart ! - Copyright ORBIFLY December 2007 - Disclaimer

ORBIFLY MET'MAP TEAM :

Programming & Development : Alexandra Zaïnal
Concept & original design : Baudouin d'Aumeries
Assistance for programming : Marc-Olivier Méhu
Technical & hardware support : Manuel Goepfert

Contact : metmap@orbifly.com




SOURCES & CREDITS :

   NOAA       Earth
Advisory